Time;durP1;ratioP1;P1;durP2;ratioP2;P2;SDS_P1;SDS_P2;PMS_P1;PMS_P2;Temp;Humidity;BMP_temperature;BMP_pressure;BME280_temperature;BME280_humidity;BME280_pressure;Samples;Min_cycle;Max_cycle;Signal;HPM_P1;HPM_P2
2023/10/07 00:00:40;;;;;;;6.88;3.35;;;16.30;99.90;;;;;;5035667;28;20128;-49
2023/10/07 00:03:07;;;;;;;5.72;3.25;;;16.40;99.90;;;;;;5035486;28;20459;-52
2023/10/07 00:05:35;;;;;;;7.85;2.90;;;16.40;99.90;;;;;;5035879;28;20446;-51
2023/10/07 00:08:37;;;;;;;6.90;3.35;;;16.40;99.90;;;;;;5035264;28;20401;-48
2023/10/07 00:10:59;;;;;;;8.65;3.15;;;16.40;99.90;;;;;;5036791;28;20046;-53
2023/10/07 00:13:30;;;;;;;8.00;3.40;;;16.40;99.90;;;;;;5033771;28;20041;-51
2023/10/07 00:15:58;;;;;;;9.32;3.05;;;16.50;99.90;;;;;;5035551;28;20082;-51
2023/10/07 00:18:26;;;;;;;11.23;3.75;;;16.50;99.90;;;;;;5035395;28;20515;-51
2023/10/07 00:20:56;;;;;;;9.63;3.03;;;16.50;99.90;;;;;;5035407;28;20499;-48
2023/10/07 00:23:23;;;;;;;6.97;3.08;;;16.50;99.90;;;;;;5033263;28;20568;-45
2023/10/07 00:25:50;;;;;;;8.40;3.25;;;16.50;99.90;;;;;;5035183;28;20412;-48
2023/10/07 00:28:32;;;;;;;6.88;3.13;;;16.50;99.90;;;;;;5035269;28;20038;-49
2023/10/07 00:31:03;;;;;;;6.75;3.05;;;16.50;99.90;;;;;;5033637;28;20176;-48
2023/10/07 00:33:45;;;;;;;7.57;3.10;;;16.50;99.90;;;;;;5033862;28;20073;-45
2023/10/07 00:36:15;;;;;;;5.20;2.90;;;16.50;99.90;;;;;;5035411;28;20065;-48
2023/10/07 00:38:44;;;;;;;6.25;2.75;;;16.50;99.90;;;;;;5034823;28;20045;-46
2023/10/07 00:41:11;;;;;;;8.55;3.08;;;16.50;99.90;;;;;;5035277;28;20037;-45
2023/10/07 00:43:38;;;;;;;7.03;3.40;;;16.50;99.90;;;;;;5034624;28;20041;-49
2023/10/07 00:46:20;;;;;;;7.05;3.28;;;16.50;99.90;;;;;;5033449;28;20038;-45
2023/10/07 00:48:47;;;;;;;6.68;2.95;;;16.50;99.90;;;;;;5033354;28;20053;-49
2023/10/07 00:51:17;;;;;;;7.90;3.22;;;16.50;99.90;;;;;;5034874;28;20048;-48
2023/10/07 00:53:53;;;;;;;6.82;3.35;;;16.50;99.90;;;;;;5033556;28;20057;-47
2023/10/07 00:56:22;;;;;;;7.47;3.30;;;16.50;99.90;;;;;;5034943;28;20111;-48
2023/10/07 00:58:52;;;;;;;7.35;3.20;;;16.50;99.90;;;;;;5034323;28;20049;-43
2023/10/07 01:01:19;;;;;;;10.25;3.10;;;16.40;99.90;;;;;;5034652;28;20042;-46
2023/10/07 01:03:51;;;;;;;6.72;3.55;;;16.40;99.90;;;;;;5033318;28;20516;-49
2023/10/07 01:06:29;;;;;;;9.15;3.17;;;16.40;99.90;;;;;;5034822;28;20552;-51
2023/10/07 01:09:08;;;;;;;6.82;3.05;;;16.40;99.90;;;;;;5032882;28;20121;-45
2023/10/07 01:11:40;;;;;;;7.18;2.88;;;16.30;99.90;;;;;;5033495;28;20049;-50
2023/10/07 01:14:07;;;;;;;7.47;3.00;;;16.30;99.90;;;;;;5034516;28;20046;-46
2023/10/07 01:16:45;;;;;;;6.93;3.20;;;16.20;99.90;;;;;;5034303;28;20096;-49
2023/10/07 01:21:40;;;;;;;8.60;3.22;;;16.20;99.90;;;;;;5034041;28;20049;-47
2023/10/07 01:24:07;;;;;;;8.02;3.40;;;16.10;99.90;;;;;;5032826;28;20132;-47
2023/10/07 01:26:41;;;;;;;7.15;3.40;;;16.10;99.90;;;;;;5033734;28;20062;-53
2023/10/07 01:29:16;;;;;;;6.88;3.22;;;16.10;99.90;;;;;;5034765;28;20496;-56
2023/10/07 01:31:59;;;;;;;8.57;3.28;;;16.10;99.90;;;;;;5033398;28;20045;-52
2023/10/07 01:34:30;;;;;;;12.43;3.75;;;16.10;99.90;;;;;;5033852;28;20140;-52
2023/10/07 01:36:57;;;;;;;5.65;3.30;;;16.10;99.90;;;;;;5034372;28;20092;-51
2023/10/07 01:39:24;;;;;;;6.80;3.20;;;16.10;99.90;;;;;;5032687;28;20052;-47
2023/10/07 01:41:50;;;;;;;11.27;3.65;;;16.00;99.90;;;;;;5032518;28;20484;-50
2023/10/07 01:44:17;;;;;;;9.32;3.42;;;16.10;99.90;;;;;;5032258;28;20037;-48
2023/10/07 01:46:47;;;;;;;9.90;3.50;;;16.00;99.90;;;;;;5033786;28;20069;-51
2023/10/07 01:49:17;;;;;;;8.82;3.80;;;16.10;99.90;;;;;;5032114;28;20477;-51
2023/10/07 01:51:44;;;;;;;8.25;3.85;;;16.10;99.90;;;;;;5032318;28;20509;-48
2023/10/07 01:54:12;;;;;;;11.65;3.30;;;16.10;99.90;;;;;;5032498;28;20052;-52
2023/10/07 01:56:39;;;;;;;8.32;3.53;;;16.00;99.90;;;;;;5033163;28;20038;-50
2023/10/07 01:59:09;;;;;;;7.70;3.60;;;16.10;99.90;;;;;;5031139;28;20115;-44
2023/10/07 02:01:41;;;;;;;7.47;3.28;;;16.10;99.90;;;;;;5031482;28;20053;-48
2023/10/07 02:04:17;;;;;;;7.38;3.40;;;16.10;99.90;;;;;;5033088;28;20434;-49
2023/10/07 02:06:54;;;;;;;7.85;3.70;;;16.10;99.90;;;;;;5031171;28;20049;-48
2023/10/07 02:09:27;;;;;;;7.53;3.50;;;16.10;99.90;;;;;;5032151;28;20045;-48
2023/10/07 02:11:54;;;;;;;8.63;3.28;;;16.10;99.90;;;;;;5032555;28;20488;-45
2023/10/07 02:14:24;;;;;;;10.52;3.30;;;16.10;99.90;;;;;;5014931;28;20065;-51
2023/10/07 02:16:50;;;;;;;8.50;3.58;;;16.10;99.90;;;;;;5032339;28;20080;-50
2023/10/07 02:19:27;;;;;;;6.43;3.00;;;16.10;99.90;;;;;;5030827;28;20060;-49
2023/10/07 02:21:59;;;;;;;6.75;2.95;;;16.10;99.90;;;;;;5032230;28;20076;-50
2023/10/07 02:24:29;;;;;;;8.38;3.17;;;16.10;99.90;;;;;;5032405;28;20037;-49
2023/10/07 02:26:56;;;;;;;11.18;3.22;;;16.10;99.90;;;;;;5032662;28;20475;-48
2023/10/07 02:29:24;;;;;;;8.82;3.35;;;16.10;99.90;;;;;;5031953;28;20095;-49
2023/10/07 02:31:53;;;;;;;7.38;3.22;;;16.10;99.90;;;;;;5031139;28;20045;-48
2023/10/07 02:34:28;;;;;;;7.25;3.13;;;16.10;99.90;;;;;;5030896;28;20049;-53
2023/10/07 02:37:11;;;;;;;10.73;3.60;;;16.10;99.90;;;;;;5031532;28;20405;-47
2023/10/07 02:39:45;;;;;;;8.65;3.25;;;16.10;99.90;;;;;;5032748;28;20420;-51
2023/10/07 02:42:22;;;;;;;7.55;3.05;;;16.10;99.90;;;;;;5030921;28;20049;-48
2023/10/07 02:44:51;;;;;;;7.38;3.03;;;16.10;99.90;;;;;;5032241;28;20041;-47
2023/10/07 02:47:18;;;;;;;6.43;3.03;;;16.10;99.90;;;;;;5030761;28;20042;-50
2023/10/07 02:49:49;;;;;;;8.77;2.92;;;16.10;99.90;;;;;;5014297;28;20072;-49
2023/10/07 02:52:17;;;;;;;8.68;2.92;;;16.10;99.90;;;;;;4990334;28;1212433;-47
2023/10/07 02:54:43;;;;;;;7.63;2.72;;;16.10;99.90;;;;;;5032640;28;20045;-48
2023/10/07 02:57:24;;;;;;;8.45;3.45;;;16.10;99.90;;;;;;5033186;28;20507;-51
2023/10/07 02:59:51;;;;;;;10.88;2.55;;;16.10;99.90;;;;;;5033025;28;20049;-50
2023/10/07 03:02:25;;;;;;;5.28;2.70;;;16.10;99.90;;;;;;5033343;28;20042;-47
2023/10/07 03:05:05;;;;;;;6.60;2.63;;;16.10;99.90;;;;;;5031701;28;20046;-51
2023/10/07 03:07:34;;;;;;;8.18;3.20;;;16.10;99.90;;;;;;5032906;28;20044;-45
2023/10/07 03:10:05;;;;;;;8.85;3.08;;;16.10;99.90;;;;;;5032466;28;20038;-49
2023/10/07 03:12:36;;;;;;;7.90;2.95;;;16.00;99.90;;;;;;5032504;28;20095;-50
2023/10/07 03:15:20;;;;;;;6.22;3.00;;;16.00;99.90;;;;;;5031531;28;20449;-50
2023/10/07 03:17:47;;;;;;;8.73;2.85;;;16.00;99.90;;;;;;5032845;28;20045;-46
2023/10/07 03:26:20;;;;;;;7.95;3.33;;;15.90;99.90;;;;;;5032966;28;20112;-46
2023/10/07 03:28:26;;;;;;;10.05;3.20;;;15.90;99.90;;;;;;5029381;28;20543;-47
2023/10/07 03:30:55;;;;;;;7.38;3.05;;;15.80;99.90;;;;;;5031176;28;20068;-53
2023/10/07 03:36:16;;;;;;;8.45;2.88;;;15.80;99.90;;;;;;5032959;28;20060;-48
2023/10/07 03:38:43;;;;;;;8.23;3.27;;;15.80;99.90;;;;;;5032636;28;20049;-48
2023/10/07 03:41:10;;;;;;;7.10;2.60;;;15.70;99.90;;;;;;5032700;28;20383;-47
2023/10/07 03:43:38;;;;;;;9.40;3.03;;;15.70;99.90;;;;;;5031158;28;20042;-48
2023/10/07 03:46:05;;;;;;;6.28;3.05;;;15.70;99.90;;;;;;5032310;28;20045;-48
2023/10/07 03:48:32;;;;;;;9.02;2.88;;;15.70;99.90;;;;;;5033538;28;20362;-52
2023/10/07 03:51:09;;;;;;;7.65;3.25;;;15.70;99.90;;;;;;5036222;28;20191;-49
2023/10/07 03:53:45;;;;;;;7.35;3.17;;;15.70;99.90;;;;;;5035678;28;20493;-49
2023/10/07 03:56:12;;;;;;;7.68;3.45;;;15.70;99.90;;;;;;5036004;28;20037;-51
2023/10/07 03:58:43;;;;;;;9.20;2.80;;;15.60;99.90;;;;;;5035584;28;20084;-48
2023/10/07 04:01:22;;;;;;;7.13;2.95;;;15.70;99.90;;;;;;5035856;28;20034;-47
2023/10/07 04:03:49;;;;;;;7.28;3.15;;;15.60;99.90;;;;;;5035398;28;20493;-49
2023/10/07 04:06:17;;;;;;;8.85;3.17;;;15.60;99.90;;;;;;5035644;28;20052;-54
2023/10/07 04:08:45;;;;;;;8.00;3.08;;;15.60;99.90;;;;;;5035653;28;20045;-51
2023/10/07 04:11:13;;;;;;;8.77;3.17;;;15.60;99.90;;;;;;5035759;28;20041;-50
2023/10/07 04:13:43;;;;;;;6.55;3.60;;;15.60;99.90;;;;;;5035814;28;20042;-51
2023/10/07 04:16:22;;;;;;;9.95;3.08;;;15.60;99.90;;;;;;5017895;28;20393;-51
2023/10/07 04:18:49;;;;;;;9.07;3.30;;;15.60;99.90;;;;;;5035131;28;20159;-46
2023/10/07 04:21:16;;;;;;;6.97;3.20;;;15.60;99.90;;;;;;5035130;28;20046;-46
2023/10/07 04:23:44;;;;;;;5.95;3.00;;;15.60;99.90;;;;;;5035239;28;20055;-51
2023/10/07 04:26:12;;;;;;;6.03;2.92;;;15.60;99.90;;;;;;5034998;28;20052;-47
2023/10/07 04:28:39;;;;;;;7.70;2.92;;;15.50;99.90;;;;;;5034979;28;20060;-50
2023/10/07 04:31:10;;;;;;;6.38;2.70;;;15.50;99.90;;;;;;5035695;28;20046;-49
2023/10/07 04:33:40;;;;;;;6.97;3.03;;;15.50;99.90;;;;;;5035382;28;20385;-46
2023/10/07 04:36:11;;;;;;;8.85;3.30;;;15.40;99.90;;;;;;5035500;28;20049;-47
2023/10/07 04:39:18;;;;;;;8.00;3.20;;;15.40;99.90;;;;;;5035427;28;20049;-53
2023/10/07 04:41:31;;;;;;;6.22;3.10;;;15.40;99.90;;;;;;5033848;28;20072;-53
2023/10/07 04:44:20;;;;;;;8.23;3.22;;;15.40;99.90;;;;;;5034742;28;20118;-48
2023/10/07 04:46:56;;;;;;;9.48;3.30;;;15.30;99.90;;;;;;5034975;28;20049;-48
2023/10/07 04:49:28;;;;;;;;;;;15.30;99.90;;;;;;5035113;28;20124;-46
2023/10/07 04:51:58;;;;;;;6.60;2.85;;;15.20;99.90;;;;;;5034578;28;19921;-48
2023/10/07 04:54:25;;;;;;;11.48;3.78;;;15.20;99.90;;;;;;5034725;28;20037;-50
2023/10/07 04:57:00;;;;;;;8.32;3.38;;;15.10;99.90;;;;;;5034966;28;20099;-47
2023/10/07 04:59:28;;;;;;;8.80;3.55;;;15.10;99.90;;;;;;5034368;28;20068;-45
2023/10/07 05:02:01;;;;;;;8.57;3.50;;;15.10;99.90;;;;;;5034248;28;20046;-50
2023/10/07 05:04:28;;;;;;;10.00;3.95;;;15.10;99.90;;;;;;5034567;28;20045;-47
2023/10/07 05:06:55;;;;;;;8.52;3.78;;;15.10;99.90;;;;;;5034397;28;20045;-48
2023/10/07 05:09:23;;;;;;;9.57;3.70;;;15.10;99.90;;;;;;5033343;28;20049;-47
2023/10/07 05:11:49;;;;;;;9.68;3.97;;;15.00;99.90;;;;;;5034694;28;20042;-51
2023/10/07 05:14:22;;;;;;;11.57;4.40;;;15.00;99.90;;;;;;5034462;28;20366;-47
2023/10/07 05:16:49;;;;;;;9.10;3.60;;;15.00;99.90;;;;;;5034183;28;20562;-48
2023/10/07 05:19:20;;;;;;;9.93;3.75;;;15.00;99.90;;;;;;5034366;28;20103;-47
2023/10/07 05:21:58;;;;;;;11.52;4.30;;;15.00;99.90;;;;;;5034575;28;20120;-50
2023/10/07 05:24:28;;;;;;;8.75;3.55;;;14.90;99.90;;;;;;5033980;28;20068;-47
2023/10/07 05:26:55;;;;;;;8.02;3.58;;;15.00;99.90;;;;;;5034188;28;20041;-50
2023/10/07 05:29:22;;;;;;;14.45;4.15;;;14.90;99.90;;;;;;5034060;28;20116;-49
2023/10/07 05:31:48;;;;;;;12.25;4.18;;;14.90;99.90;;;;;;5033835;28;20473;-47
2023/10/07 05:34:15;;;;;;;10.32;3.67;;;14.90;99.90;;;;;;5033924;28;20501;-50
2023/10/07 05:36:43;;;;;;;9.52;3.83;;;14.90;99.90;;;;;;5034187;28;20045;-48
2023/10/07 05:39:13;;;;;;;10.13;4.10;;;14.90;99.90;;;;;;5033778;28;20128;-49
2023/10/07 05:41:40;;;;;;;8.23;3.95;;;14.90;99.90;;;;;;5033725;28;20045;-44
2023/10/07 05:44:08;;;;;;;10.07;4.00;;;14.90;99.90;;;;;;5033835;28;20037;-46
2023/10/07 05:46:35;;;;;;;11.27;4.00;;;14.90;99.90;;;;;;5033883;28;20052;-46
2023/10/07 05:49:02;;;;;;;8.55;4.30;;;14.90;99.90;;;;;;5034079;28;20044;-46
2023/10/07 05:51:29;;;;;;;8.73;3.90;;;14.90;99.90;;;;;;5033719;28;20038;-49
2023/10/07 05:53:55;;;;;;;9.00;3.83;;;14.90;99.90;;;;;;5033501;28;20056;-52
2023/10/07 05:56:22;;;;;;;8.00;3.55;;;14.90;99.90;;;;;;5032075;28;20041;-50
2023/10/07 05:58:49;;;;;;;12.45;4.45;;;14.90;99.90;;;;;;5033289;28;20461;-51
2023/10/07 06:01:16;;;;;;;12.38;4.57;;;14.90;99.90;;;;;;5033733;28;20523;-50
2023/10/07 06:03:44;;;;;;;8.60;3.60;;;14.90;99.90;;;;;;5033397;28;20039;-48
2023/10/07 06:06:11;;;;;;;10.38;4.32;;;15.00;99.90;;;;;;5033561;28;20053;-51
2023/10/07 06:08:37;;;;;;;8.88;3.50;;;15.00;99.90;;;;;;5033300;28;20064;-48
2023/10/07 06:11:04;;;;;;;8.52;4.07;;;15.00;99.90;;;;;;5033245;28;20053;-47
2023/10/07 06:13:33;;;;;;;11.95;3.90;;;15.00;99.90;;;;;;5033203;28;20041;-46
2023/10/07 06:16:04;;;;;;;14.80;4.15;;;15.00;99.90;;;;;;5033218;28;20080;-48
2023/10/07 06:18:34;;;;;;;11.15;4.13;;;15.00;99.90;;;;;;5033634;28;20073;-52
2023/10/07 06:23:47;;;;;;;;;;;15.00;99.90;;;;;;5033602;28;20045;-51
2023/10/07 06:26:15;;;;;;;11.00;3.88;;;15.00;99.90;;;;;;5032832;28;19921;-49
2023/10/07 06:28:44;;;;;;;10.32;4.18;;;15.00;99.90;;;;;;5033080;28;20087;-45
2023/10/07 06:31:11;;;;;;;7.60;4.03;;;15.00;99.90;;;;;;5033137;28;20045;-47
2023/10/07 06:33:39;;;;;;;9.60;3.78;;;15.10;99.90;;;;;;5033046;28;20050;-47
2023/10/07 06:36:07;;;;;;;11.35;3.90;;;15.00;99.90;;;;;;5033392;28;20056;-52
2023/10/07 06:38:33;;;;;;;10.18;4.18;;;15.10;99.90;;;;;;5032981;28;20177;-50
2023/10/07 06:41:00;;;;;;;10.15;4.07;;;15.10;99.90;;;;;;5032987;28;20511;-49
2023/10/07 06:43:27;;;;;;;10.20;4.15;;;15.10;99.90;;;;;;5033087;28;20045;-47
2023/10/07 06:45:55;;;;;;;9.75;3.88;;;15.10;99.90;;;;;;5032836;28;20045;-49
2023/10/07 06:48:27;;;;;;;10.13;4.07;;;15.10;99.90;;;;;;5033033;28;20124;-49
2023/10/07 06:50:54;;;;;;;11.93;3.97;;;15.20;99.90;;;;;;5032973;28;20379;-45
2023/10/07 06:53:23;;;;;;;10.55;3.85;;;15.20;99.90;;;;;;5032718;28;20049;-52
2023/10/07 06:55:54;;;;;;;8.05;3.63;;;15.20;99.90;;;;;;5031566;28;20111;-54
2023/10/07 06:58:22;;;;;;;10.48;4.35;;;15.20;99.90;;;;;;5032701;28;20049;-49
2023/10/07 07:00:49;;;;;;;8.02;4.03;;;15.20;99.90;;;;;;5032981;28;20045;-48
2023/10/07 07:03:19;;;;;;;8.27;3.92;;;15.20;99.90;;;;;;5031900;28;20069;-47
2023/10/07 07:05:48;;;;;;;8.15;3.58;;;15.20;99.90;;;;;;5032885;28;20064;-49
2023/10/07 07:08:14;;;;;;;10.30;4.28;;;15.20;99.90;;;;;;5032569;28;20427;-47
2023/10/07 07:10:41;;;;;;;9.90;4.00;;;15.30;99.90;;;;;;5033087;28;20038;-44
2023/10/07 07:13:15;;;;;;;10.73;3.80;;;15.30;99.90;;;;;;5033127;28;20045;-50
2023/10/07 07:15:43;;;;;;;10.90;4.00;;;15.30;99.90;;;;;;5032927;28;20060;-49
2023/10/07 07:20:49;;;;;;;8.50;3.80;;;15.40;99.90;;;;;;5033098;28;20045;-45
2023/10/07 07:23:16;;;;;;;9.30;4.38;;;15.40;99.90;;;;;;5033521;28;20385;-49
2023/10/07 07:25:43;;;;;;;7.97;3.92;;;15.40;99.90;;;;;;5036258;28;20044;-47
2023/10/07 07:28:10;;;;;;;9.32;4.30;;;15.50;99.90;;;;;;5036412;28;20034;-49
2023/10/07 07:30:37;;;;;;;11.82;4.70;;;15.50;99.90;;;;;;5036227;28;20053;-47
2023/10/07 07:33:08;;;;;;;15.73;4.43;;;15.60;99.90;;;;;;5037100;28;20072;-50
2023/10/07 07:35:39;;;;;;;9.43;4.28;;;15.60;99.90;;;;;;5039810;28;20053;-49
2023/10/07 07:41:09;;;;;;;13.88;4.93;;;15.70;99.90;;;;;;5034248;28;20049;-49
2023/10/07 07:43:37;;;;;;;13.57;4.70;;;15.70;99.90;;;;;;5035467;28;20495;-49
2023/10/07 07:46:11;;;;;;;14.50;4.18;;;15.80;99.90;;;;;;5036124;28;20076;-50
2023/10/07 07:48:38;;;;;;;11.25;4.00;;;15.80;99.90;;;;;;5035870;28;20045;-49
2023/10/07 07:51:07;;;;;;;8.35;3.67;;;15.90;99.90;;;;;;5036084;28;20045;-51
2023/10/07 07:53:34;;;;;;;12.00;4.07;;;15.90;99.90;;;;;;5035426;28;20173;-47
2023/10/07 07:56:00;;;;;;;9.80;4.10;;;15.90;99.90;;;;;;5035961;28;20461;-47
2023/10/07 07:58:27;;;;;;;8.43;3.80;;;16.00;99.90;;;;;;5035757;28;20041;-47
2023/10/07 08:01:06;;;;;;;13.32;4.18;;;16.10;99.90;;;;;;5035646;28;20057;-48
2023/10/07 08:03:38;;;;;;;10.70;4.22;;;16.20;99.90;;;;;;5035531;28;20124;-47
2023/10/07 08:06:06;;;;;;;12.75;4.57;;;16.20;99.90;;;;;;5035519;28;20099;-47
2023/10/07 08:08:36;;;;;;;13.05;4.15;;;16.30;99.90;;;;;;5024346;28;20034;-48
2023/10/07 08:11:05;;;;;;;9.50;4.20;;;16.40;99.90;;;;;;5024791;28;20088;-52
2023/10/07 08:13:32;;;;;;;10.45;4.93;;;16.50;99.90;;;;;;5021443;28;20095;-52
2023/10/07 08:16:05;;;;;;;9.57;4.20;;;16.60;99.90;;;;;;5015559;28;20438;-47
2023/10/07 08:18:32;;;;;;;9.65;3.83;;;16.70;99.90;;;;;;5025165;28;20065;-51
2023/10/07 08:21:13;;;;;;;11.60;4.55;;;16.70;99.90;;;;;;5026925;28;20045;-45
2023/10/07 08:23:40;;;;;;;10.95;4.20;;;16.80;99.90;;;;;;5035311;28;20051;-46
2023/10/07 08:26:10;;;;;;;8.98;4.03;;;16.90;99.90;;;;;;5035354;28;20044;-48
2023/10/07 08:31:57;;;;;;;8.13;3.92;;;17.00;99.90;;;;;;5035232;28;20048;-49
2023/10/07 08:34:09;;;;;;;8.68;4.03;;;17.10;99.90;;;;;;5037545;28;20053;-45
2023/10/07 08:36:37;;;;;;;8.90;4.20;;;17.20;99.90;;;;;;5035121;28;20041;-50
2023/10/07 08:39:13;;;;;;;8.50;4.03;;;17.30;99.90;;;;;;5035023;28;20103;-45
2023/10/07 08:41:52;;;;;;;11.75;4.05;;;17.30;99.90;;;;;;5035166;28;20052;-45
2023/10/07 08:44:21;;;;;;;10.18;4.30;;;17.40;99.90;;;;;;5035020;28;20049;-47
2023/10/07 08:46:53;;;;;;;7.47;4.03;;;17.50;99.90;;;;;;5035057;28;20038;-46
2023/10/07 08:49:25;;;;;;;8.25;3.88;;;17.50;99.90;;;;;;5035015;28;20041;-44
2023/10/07 08:51:52;;;;;;;10.48;3.97;;;17.60;99.90;;;;;;5034417;28;20146;-47
2023/10/07 08:54:26;;;;;;;12.70;4.40;;;17.60;99.90;;;;;;5034963;28;20052;-45
2023/10/07 08:56:54;;;;;;;9.27;4.00;;;17.70;99.90;;;;;;5034418;28;20072;-50
2023/10/07 08:59:22;;;;;;;7.45;3.75;;;17.80;99.90;;;;;;5034249;28;20500;-47
2023/10/07 09:01:57;;;;;;;7.72;3.70;;;17.80;99.90;;;;;;5034306;28;20440;-48
2023/10/07 09:04:24;;;;;;;7.22;3.88;;;17.80;99.90;;;;;;5034680;28;20049;-48
2023/10/07 09:06:51;;;;;;;9.27;3.78;;;17.90;99.90;;;;;;5034054;28;20041;-46
2023/10/07 09:09:24;;;;;;;7.25;4.07;;;17.90;99.90;;;;;;5034449;28;20454;-50
2023/10/07 09:11:51;;;;;;;9.07;4.03;;;18.00;99.90;;;;;;5034654;28;20099;-53
2023/10/07 09:14:18;;;;;;;6.10;3.50;;;18.10;99.90;;;;;;5034153;28;20046;-48
2023/10/07 09:16:46;;;;;;;10.10;3.63;;;18.10;99.90;;;;;;5033768;28;20477;-51
2023/10/07 09:19:15;;;;;;;9.70;4.25;;;18.20;99.90;;;;;;5033680;28;20424;-52
2023/10/07 09:21:45;;;;;;;10.00;4.25;;;18.30;99.90;;;;;;5031153;28;20138;-53
2023/10/07 09:24:18;;;;;;;9.50;3.95;;;18.30;99.90;;;;;;5032982;28;20041;-49
2023/10/07 09:26:46;;;;;;;8.97;3.87;;;18.40;99.90;;;;;;5032235;28;20057;-51
2023/10/07 09:29:21;;;;;;;7.10;3.90;;;18.50;99.90;;;;;;5033634;28;20060;-51
2023/10/07 09:32:04;;;;;;;9.13;3.83;;;18.50;99.90;;;;;;5033342;28;20065;-50
2023/10/07 09:34:44;;;;;;;7.63;3.55;;;18.60;99.90;;;;;;5028090;28;20125;-45
2023/10/07 09:37:13;;;;;;;8.60;3.78;;;18.70;99.90;;;;;;5033355;28;20132;-48
2023/10/07 09:39:53;;;;;;;6.63;3.80;;;18.80;99.90;;;;;;5032532;28;20080;-48
2023/10/07 09:42:26;;;;;;;6.55;3.50;;;18.90;99.90;;;;;;5031537;28;20053;-48
2023/10/07 09:44:53;;;;;;;8.40;4.03;;;18.90;99.90;;;;;;5029465;28;20120;-45
2023/10/07 09:47:21;;;;;;;6.88;3.83;;;19.00;99.90;;;;;;5030159;28;20152;-46
2023/10/07 09:49:49;;;;;;;6.95;4.05;;;19.10;99.90;;;;;;5031955;28;20033;-48
2023/10/07 09:52:16;;;;;;;6.07;3.72;;;19.10;99.90;;;;;;5032277;28;20050;-49
2023/10/07 09:54:47;;;;;;;6.93;3.95;;;19.30;99.90;;;;;;5031806;28;20065;-49
2023/10/07 09:57:19;;;;;;;7.85;3.92;;;19.30;99.90;;;;;;5032843;28;20049;-51
2023/10/07 09:59:48;;;;;;;8.63;3.70;;;19.40;99.90;;;;;;5031375;28;20045;-46
2023/10/07 10:02:27;;;;;;;8.40;4.30;;;19.40;99.90;;;;;;5030895;28;20096;-50
2023/10/07 10:04:54;;;;;;;7.85;3.88;;;19.40;99.90;;;;;;5030976;28;20050;-50
2023/10/07 10:07:22;;;;;;;9.02;4.10;;;19.50;99.90;;;;;;5031165;28;20450;-49
2023/10/07 10:10:12;;;;;;;6.93;4.07;;;19.60;99.90;;;;;;5031528;28;20041;-47
2023/10/07 10:12:49;;;;;;;8.65;3.95;;;19.70;99.90;;;;;;5031530;28;20103;-48
2023/10/07 10:17:48;;;;;;;6.15;3.70;;;19.90;99.90;;;;;;5032781;28;20045;-47
2023/10/07 10:20:18;;;;;;;7.47;3.95;;;20.00;99.90;;;;;;5032167;28;20071;-49
2023/10/07 10:22:45;;;;;;;6.28;4.22;;;20.00;99.90;;;;;;5032652;28;20038;-50
2023/10/07 10:25:25;;;;;;;7.75;3.95;;;20.00;99.90;;;;;;5031157;28;20551;-51
2023/10/07 10:27:52;;;;;;;7.07;4.38;;;20.00;99.90;;;;;;5032489;28;20525;-51
2023/10/07 10:30:21;;;;;;;6.82;4.10;;;20.00;99.90;;;;;;5032895;28;20099;-48
2023/10/07 10:32:48;;;;;;;11.10;4.32;;;20.00;99.90;;;;;;5031245;28;20493;-53
2023/10/07 10:35:15;;;;;;;6.25;4.05;;;20.10;99.90;;;;;;5033199;28;20572;-50
2023/10/07 10:37:42;;;;;;;8.65;4.53;;;20.10;99.90;;;;;;5032595;28;20059;-51
2023/10/07 10:40:09;;;;;;;9.48;4.57;;;20.20;99.90;;;;;;5032844;28;20037;-50
2023/10/07 10:42:36;;;;;;;8.00;3.97;;;20.20;99.90;;;;;;5032971;28;20044;-50
2023/10/07 10:45:02;;;;;;;8.45;4.47;;;20.30;99.90;;;;;;5032668;28;20037;-51
2023/10/07 10:47:30;;;;;;;8.20;4.22;;;20.40;99.90;;;;;;5032514;28;20388;-50
2023/10/07 10:49:56;;;;;;;6.18;3.83;;;20.40;99.90;;;;;;5032574;28;20092;-48
2023/10/07 10:52:24;;;;;;;7.45;4.32;;;20.50;99.90;;;;;;5032309;28;20086;-51
2023/10/07 10:54:52;;;;;;;8.25;4.00;;;20.50;99.90;;;;;;5032905;28;20141;-50
2023/10/07 10:57:19;;;;;;;7.10;4.45;;;20.60;99.90;;;;;;5031198;28;20054;-51
2023/10/07 10:59:47;;;;;;;7.18;4.10;;;20.70;99.90;;;;;;5035941;28;20045;-50
2023/10/07 11:02:17;;;;;;;7.82;3.95;;;20.80;99.90;;;;;;5036539;28;20137;-50
2023/10/07 11:04:44;;;;;;;7.65;4.10;;;20.80;99.90;;;;;;5036447;28;20068;-53
2023/10/07 11:07:11;;;;;;;6.70;4.10;;;20.90;99.90;;;;;;5036227;28;20030;-53
2023/10/07 11:09:38;;;;;;;9.63;3.60;;;20.90;99.90;;;;;;5036381;28;20523;-48
2023/10/07 11:12:16;;;;;;;9.27;4.35;;;21.00;99.90;;;;;;5036310;28;20123;-47
2023/10/07 11:14:43;;;;;;;12.00;4.32;;;21.10;99.90;;;;;;5036537;28;20096;-47
2023/10/07 11:17:10;;;;;;;9.35;4.05;;;21.10;99.90;;;;;;5036627;28;20073;-46
2023/10/07 11:19:39;;;;;;;7.72;3.70;;;21.10;99.90;;;;;;5036064;28;20037;-50
2023/10/07 11:22:07;;;;;;;5.50;3.70;;;21.20;99.90;;;;;;5036002;28;20076;-47
2023/10/07 11:24:35;;;;;;;9.45;4.03;;;21.20;99.90;;;;;;5036087;28;20079;-49
2023/10/07 11:27:02;;;;;;;11.13;4.32;;;21.20;99.90;;;;;;5036101;28;20045;-48
2023/10/07 11:29:32;;;;;;;9.23;3.63;;;21.20;99.90;;;;;;5036193;28;20086;-48
2023/10/07 11:31:59;;;;;;;8.05;4.00;;;21.20;99.90;;;;;;5035391;28;20049;-48
2023/10/07 11:34:26;;;;;;;8.65;4.13;;;21.30;99.90;;;;;;5035784;28;20120;-48
2023/10/07 11:36:53;;;;;;;8.52;4.45;;;21.30;99.90;;;;;;5035575;28;20045;-47
2023/10/07 11:39:20;;;;;;;6.07;4.05;;;21.40;99.90;;;;;;5035645;28;20045;-53
2023/10/07 11:41:47;;;;;;;7.13;3.85;;;21.50;99.90;;;;;;5035662;28;20049;-48
2023/10/07 11:44:13;;;;;;;7.43;3.70;;;21.60;99.90;;;;;;5036072;28;20048;-50
2023/10/07 11:46:41;;;;;;;6.53;3.88;;;21.60;99.90;;;;;;5035417;28;20046;-52
2023/10/07 11:49:08;;;;;;;8.10;4.18;;;21.80;99.90;;;;;;5035506;28;20103;-49
2023/10/07 11:51:35;;;;;;;7.80;4.35;;;21.80;99.90;;;;;;5035520;28;20077;-49
2023/10/07 11:54:02;;;;;;;9.88;3.90;;;21.90;99.90;;;;;;5035437;28;20054;-49
2023/10/07 11:56:29;;;;;;;5.85;3.97;;;21.90;99.90;;;;;;5035658;28;20120;-50
2023/10/07 11:58:56;;;;;;;9.48;4.45;;;22.00;99.90;;;;;;5035381;28;20393;-53
2023/10/07 12:01:23;;;;;;;7.60;3.90;;;22.00;99.90;;;;;;5035484;28;20075;-49
2023/10/07 12:03:50;;;;;;;7.38;4.10;;;22.00;99.90;;;;;;5034109;28;20373;-54
2023/10/07 12:06:17;;;;;;;8.98;3.95;;;22.10;99.90;;;;;;5035492;28;20041;-47
2023/10/07 12:08:45;;;;;;;9.23;4.57;;;22.10;99.90;;;;;;5035123;28;20040;-50
2023/10/07 12:11:12;;;;;;;11.10;4.97;;;22.20;99.90;;;;;;5033879;28;20049;-53
2023/10/07 12:13:40;;;;;;;11.10;5.07;;;22.20;99.90;;;;;;5035677;28;20116;-54
2023/10/07 12:16:07;;;;;;;8.82;4.25;;;22.30;99.90;;;;;;5033954;28;20049;-46
2023/10/07 12:18:34;;;;;;;8.13;4.38;;;22.40;99.90;;;;;;5035205;28;20042;-49
2023/10/07 12:21:02;;;;;;;9.57;4.35;;;22.40;99.90;;;;;;5034197;28;20552;-55
2023/10/07 12:23:33;;;;;;;10.80;4.32;;;22.40;99.90;;;;;;5035078;28;20084;-48
2023/10/07 12:26:01;;;;;;;10.32;4.70;;;22.40;99.90;;;;;;5035156;28;20037;-50
2023/10/07 12:28:30;;;;;;;7.07;4.20;;;22.50;99.90;;;;;;5034871;28;20065;-48
2023/10/07 12:30:57;;;;;;;10.60;4.60;;;22.50;99.90;;;;;;5035326;28;20069;-47
2023/10/07 12:33:24;;;;;;;11.70;4.80;;;22.60;99.60;;;;;;5033456;28;20489;-52
2023/10/07 12:36:02;;;;;;;7.85;4.60;;;22.70;99.50;;;;;;5034630;28;20563;-48
2023/10/07 12:38:29;;;;;;;12.35;4.38;;;22.70;99.20;;;;;;5034597;28;20033;-56
2023/10/07 12:40:56;;;;;;;11.45;4.55;;;22.80;99.60;;;;;;5034618;28;20520;-46
2023/10/07 12:43:23;;;;;;;9.30;4.38;;;22.80;99.60;;;;;;5033695;28;20550;-51
2023/10/07 12:45:50;;;;;;;11.60;4.80;;;22.90;99.70;;;;;;5034506;28;20080;-50
2023/10/07 12:48:18;;;;;;;9.85;4.53;;;22.90;99.40;;;;;;5034335;28;20044;-51
2023/10/07 12:50:46;;;;;;;8.75;4.55;;;23.00;99.10;;;;;;5034749;28;20096;-49
2023/10/07 12:53:16;;;;;;;10.93;4.80;;;23.00;99.00;;;;;;5033355;28;20107;-48
2023/10/07 12:55:43;;;;;;;9.13;4.10;;;23.20;99.00;;;;;;5034641;28;20120;-51
2023/10/07 12:58:15;;;;;;;10.02;4.35;;;23.30;98.50;;;;;;5034640;28;20052;-53
2023/10/07 13:00:42;;;;;;;11.93;4.65;;;23.40;98.20;;;;;;5034526;28;20049;-54
2023/10/07 13:03:09;;;;;;;11.95;4.10;;;23.50;97.90;;;;;;5034300;28;20038;-49
2023/10/07 13:05:37;;;;;;;7.97;4.28;;;23.60;97.60;;;;;;5032865;28;20048;-47
2023/10/07 13:08:17;;;;;;;9.73;4.88;;;23.60;97.20;;;;;;5033575;28;20381;-50
2023/10/07 13:10:44;;;;;;;10.27;4.78;;;23.50;97.20;;;;;;5027854;28;20034;-50
2023/10/07 13:13:13;;;;;;;12.75;5.30;;;23.50;97.40;;;;;;5027888;28;20558;-46
2023/10/07 13:15:41;;;;;;;11.98;5.55;;;23.40;97.40;;;;;;5033836;28;20042;-53
2023/10/07 13:18:09;;;;;;;12.80;5.53;;;23.40;97.70;;;;;;5034897;28;20041;-55
2023/10/07 13:20:38;;;;;;;8.77;4.88;;;23.40;98.20;;;;;;5034025;28;20049;-53
2023/10/07 13:23:06;;;;;;;9.18;4.88;;;23.40;97.70;;;;;;5036113;28;20068;-54